sensor_id;sensor_type;location;lat;lon;timestamp;temperature;humidity
49224;DHT22;35050;51.316;5.994;2022-10-18T00:01:00;15.90;99.90
49224;DHT22;35050;51.316;5.994;2022-10-18T00:03:26;16.00;99.90
49224;DHT22;35050;51.316;5.994;2022-10-18T00:05:52;16.00;99.90
49224;DHT22;35050;51.316;5.994;2022-10-18T00:08:18;16.00;99.90
49224;DHT22;35050;51.316;5.994;2022-10-18T00:10:44;16.00;99.90
49224;DHT22;35050;51.316;5.994;2022-10-18T00:13:09;16.00;99.90
49224;DHT22;35050;51.316;5.994;2022-10-18T00:15:35;16.00;99.90
49224;DHT22;35050;51.316;5.994;2022-10-18T00:18:01;16.00;99.90
49224;DHT22;35050;51.316;5.994;2022-10-18T00:20:26;16.10;99.90
49224;DHT22;35050;51.316;5.994;2022-10-18T00:22:52;16.00;99.90
49224;DHT22;35050;51.316;5.994;2022-10-18T00:25:18;16.00;99.90
49224;DHT22;35050;51.316;5.994;2022-10-18T00:27:44;16.00;99.90
49224;DHT22;35050;51.316;5.994;2022-10-18T00:30:09;16.00;99.90
49224;DHT22;35050;51.316;5.994;2022-10-18T00:32:40;16.00;99.90
49224;DHT22;35050;51.316;5.994;2022-10-18T00:35:06;16.10;99.90
49224;DHT22;35050;51.316;5.994;2022-10-18T00:37:34;16.00;99.90
49224;DHT22;35050;51.316;5.994;2022-10-18T00:40:00;16.00;99.90
49224;DHT22;35050;51.316;5.994;2022-10-18T00:42:29;16.00;99.90
49224;DHT22;35050;51.316;5.994;2022-10-18T00:47:31;15.90;99.90
49224;DHT22;35050;51.316;5.994;2022-10-18T00:50:02;16.00;99.90
49224;DHT22;35050;51.316;5.994;2022-10-18T00:52:34;16.00;99.90
49224;DHT22;35050;51.316;5.994;2022-10-18T00:55:01;16.00;99.90
49224;DHT22;35050;51.316;5.994;2022-10-18T00:57:27;16.00;99.90
49224;DHT22;35050;51.316;5.994;2022-10-18T00:59:53;16.00;99.90
49224;DHT22;35050;51.316;5.994;2022-10-18T01:02:19;16.00;99.90
49224;DHT22;35050;51.316;5.994;2022-10-18T01:04:46;16.00;99.90
49224;DHT22;35050;51.316;5.994;2022-10-18T01:18:07;16.00;99.90
49224;DHT22;35050;51.316;5.994;2022-10-18T01:20:56;16.00;99.90
49224;DHT22;35050;51.316;5.994;2022-10-18T01:32:13;16.00;99.90
49224;DHT22;35050;51.316;5.994;2022-10-18T01:34:41;16.00;99.90
49224;DHT22;35050;51.316;5.994;2022-10-18T01:37:12;15.90;99.90
49224;DHT22;35050;51.316;5.994;2022-10-18T01:39:41;16.00;99.90
49224;DHT22;35050;51.316;5.994;2022-10-18T01:42:11;16.00;99.90
49224;DHT22;35050;51.316;5.994;2022-10-18T01:44:40;16.00;99.90
49224;DHT22;35050;51.316;5.994;2022-10-18T01:47:08;16.00;99.90
49224;DHT22;35050;51.316;5.994;2022-10-18T01:49:34;16.10;99.90
49224;DHT22;35050;51.316;5.994;2022-10-18T01:52:00;16.10;99.90
49224;DHT22;35050;51.316;5.994;2022-10-18T01:54:38;16.00;99.90
49224;DHT22;35050;51.316;5.994;2022-10-18T02:05:24;16.00;99.90
49224;DHT22;35050;51.316;5.994;2022-10-18T02:10:47;16.00;99.90
49224;DHT22;35050;51.316;5.994;2022-10-18T02:13:17;16.00;99.90
49224;DHT22;35050;51.316;5.994;2022-10-18T02:15:46;16.00;99.90
49224;DHT22;35050;51.316;5.994;2022-10-18T02:18:28;16.00;99.90
49224;DHT22;35050;51.316;5.994;2022-10-18T02:20:57;16.00;99.90
49224;DHT22;35050;51.316;5.994;2022-10-18T02:23:23;16.10;99.90
49224;DHT22;35050;51.316;5.994;2022-10-18T02:25:51;16.10;99.90
49224;DHT22;35050;51.316;5.994;2022-10-18T02:28:17;16.00;99.90
49224;DHT22;35050;51.316;5.994;2022-10-18T02:30:49;16.00;99.90
49224;DHT22;35050;51.316;5.994;2022-10-18T02:33:32;16.00;99.90
49224;DHT22;35050;51.316;5.994;2022-10-18T02:36:09;16.00;99.90
49224;DHT22;35050;51.316;5.994;2022-10-18T02:38:38;16.00;99.90
49224;DHT22;35050;51.316;5.994;2022-10-18T02:41:05;16.00;99.90
49224;DHT22;35050;51.316;5.994;2022-10-18T02:43:31;16.00;99.90
49224;DHT22;35050;51.316;5.994;2022-10-18T02:45:57;16.00;99.90
49224;DHT22;35050;51.316;5.994;2022-10-18T02:48:23;16.00;99.90
49224;DHT22;35050;51.316;5.994;2022-10-18T02:50:48;16.00;99.90
49224;DHT22;35050;51.316;5.994;2022-10-18T02:53:14;16.00;99.90
49224;DHT22;35050;51.316;5.994;2022-10-18T02:55:39;16.00;99.90
49224;DHT22;35050;51.316;5.994;2022-10-18T02:58:05;16.00;99.90
49224;DHT22;35050;51.316;5.994;2022-10-18T03:00:30;15.90;99.90
49224;DHT22;35050;51.316;5.994;2022-10-18T03:02:56;16.00;99.90
49224;DHT22;35050;51.316;5.994;2022-10-18T03:05:22;16.00;99.90
49224;DHT22;35050;51.316;5.994;2022-10-18T03:07:47;15.90;99.90
49224;DHT22;35050;51.316;5.994;2022-10-18T03:10:13;16.00;99.90
49224;DHT22;35050;51.316;5.994;2022-10-18T03:12:39;15.90;99.90
49224;DHT22;35050;51.316;5.994;2022-10-18T03:15:05;16.00;99.90
49224;DHT22;35050;51.316;5.994;2022-10-18T03:17:30;15.90;99.90
49224;DHT22;35050;51.316;5.994;2022-10-18T03:19:56;16.00;99.90
49224;DHT22;35050;51.316;5.994;2022-10-18T03:22:21;16.00;99.90
49224;DHT22;35050;51.316;5.994;2022-10-18T03:24:49;15.90;99.90
49224;DHT22;35050;51.316;5.994;2022-10-18T03:27:15;15.90;99.90
49224;DHT22;35050;51.316;5.994;2022-10-18T03:29:40;16.00;99.90
49224;DHT22;35050;51.316;5.994;2022-10-18T03:32:06;16.00;99.90
49224;DHT22;35050;51.316;5.994;2022-10-18T03:34:32;15.90;99.90
49224;DHT22;35050;51.316;5.994;2022-10-18T03:36:57;16.00;99.90
49224;DHT22;35050;51.316;5.994;2022-10-18T03:39:23;15.90;99.90
49224;DHT22;35050;51.316;5.994;2022-10-18T03:41:48;15.90;99.90
49224;DHT22;35050;51.316;5.994;2022-10-18T03:44:14;16.00;99.90
49224;DHT22;35050;51.316;5.994;2022-10-18T03:46:40;15.90;99.90
49224;DHT22;35050;51.316;5.994;2022-10-18T03:49:06;15.80;99.90
49224;DHT22;35050;51.316;5.994;2022-10-18T03:51:31;15.90;99.90
49224;DHT22;35050;51.316;5.994;2022-10-18T03:53:57;15.90;99.90
49224;DHT22;35050;51.316;5.994;2022-10-18T03:56:23;15.90;99.90
49224;DHT22;35050;51.316;5.994;2022-10-18T03:58:48;15.90;99.90
49224;DHT22;35050;51.316;5.994;2022-10-18T04:01:14;15.90;99.90
49224;DHT22;35050;51.316;5.994;2022-10-18T04:03:39;16.00;99.90
49224;DHT22;35050;51.316;5.994;2022-10-18T04:06:05;16.00;99.90
49224;DHT22;35050;51.316;5.994;2022-10-18T04:08:32;16.00;99.90
49224;DHT22;35050;51.316;5.994;2022-10-18T04:10:57;16.00;99.90
49224;DHT22;35050;51.316;5.994;2022-10-18T04:13:23;15.90;99.90
49224;DHT22;35050;51.316;5.994;2022-10-18T04:15:48;16.00;99.90
49224;DHT22;35050;51.316;5.994;2022-10-18T04:18:14;15.90;99.90
49224;DHT22;35050;51.316;5.994;2022-10-18T04:20:40;15.90;99.90
49224;DHT22;35050;51.316;5.994;2022-10-18T04:23:05;15.90;99.90
49224;DHT22;35050;51.316;5.994;2022-10-18T04:25:31;15.90;99.90
49224;DHT22;35050;51.316;5.994;2022-10-18T04:27:57;15.80;99.90
49224;DHT22;35050;51.316;5.994;2022-10-18T04:30:22;15.90;99.90
49224;DHT22;35050;51.316;5.994;2022-10-18T04:32:48;15.90;99.90
49224;DHT22;35050;51.316;5.994;2022-10-18T04:35:14;15.90;99.90
49224;DHT22;35050;51.316;5.994;2022-10-18T04:37:39;15.90;99.90
49224;DHT22;35050;51.316;5.994;2022-10-18T04:40:05;16.00;99.90
49224;DHT22;35050;51.316;5.994;2022-10-18T04:42:31;16.10;99.90
49224;DHT22;35050;51.316;5.994;2022-10-18T04:44:57;16.00;99.90
49224;DHT22;35050;51.316;5.994;2022-10-18T04:47:22;15.90;99.90
49224;DHT22;35050;51.316;5.994;2022-10-18T04:49:48;15.90;99.90
49224;DHT22;35050;51.316;5.994;2022-10-18T04:52:13;15.90;99.90
49224;DHT22;35050;51.316;5.994;2022-10-18T04:54:39;15.90;99.90
49224;DHT22;35050;51.316;5.994;2022-10-18T04:57:05;16.00;99.90
49224;DHT22;35050;51.316;5.994;2022-10-18T04:59:30;16.00;99.90
49224;DHT22;35050;51.316;5.994;2022-10-18T05:01:56;15.90;99.90
49224;DHT22;35050;51.316;5.994;2022-10-18T05:04:21;15.90;99.90
49224;DHT22;35050;51.316;5.994;2022-10-18T05:06:47;15.90;99.90
49224;DHT22;35050;51.316;5.994;2022-10-18T05:09:13;16.00;99.90
49224;DHT22;35050;51.316;5.994;2022-10-18T05:11:38;16.00;99.90
49224;DHT22;35050;51.316;5.994;2022-10-18T05:14:04;15.90;99.90
49224;DHT22;35050;51.316;5.994;2022-10-18T05:16:30;15.80;99.90
49224;DHT22;35050;51.316;5.994;2022-10-18T05:18:56;15.80;99.90
49224;DHT22;35050;51.316;5.994;2022-10-18T05:21:22;15.80;99.90
49224;DHT22;35050;51.316;5.994;2022-10-18T05:23:47;15.70;99.90
49224;DHT22;35050;51.316;5.994;2022-10-18T05:26:13;15.70;99.90
49224;DHT22;35050;51.316;5.994;2022-10-18T05:28:39;15.80;99.90
49224;DHT22;35050;51.316;5.994;2022-10-18T05:31:05;15.80;99.90
49224;DHT22;35050;51.316;5.994;2022-10-18T05:33:31;15.80;99.90
49224;DHT22;35050;51.316;5.994;2022-10-18T05:35:58;15.70;99.90
49224;DHT22;35050;51.316;5.994;2022-10-18T05:38:24;15.80;99.90
49224;DHT22;35050;51.316;5.994;2022-10-18T05:40:49;15.70;99.90
49224;DHT22;35050;51.316;5.994;2022-10-18T05:43:15;15.70;99.90
49224;DHT22;35050;51.316;5.994;2022-10-18T05:45:50;15.70;99.90
49224;DHT22;35050;51.316;5.994;2022-10-18T05:48:16;15.70;99.90
49224;DHT22;35050;51.316;5.994;2022-10-18T05:50:43;15.70;99.90
49224;DHT22;35050;51.316;5.994;2022-10-18T05:53:09;15.70;99.90
49224;DHT22;35050;51.316;5.994;2022-10-18T05:55:35;15.70;99.90
49224;DHT22;35050;51.316;5.994;2022-10-18T05:58:01;15.60;99.90
49224;DHT22;35050;51.316;5.994;2022-10-18T06:00:27;15.60;99.90
49224;DHT22;35050;51.316;5.994;2022-10-18T06:02:53;15.70;99.90
49224;DHT22;35050;51.316;5.994;2022-10-18T06:05:19;15.70;99.90
49224;DHT22;35050;51.316;5.994;2022-10-18T06:07:44;15.70;99.90
49224;DHT22;35050;51.316;5.994;2022-10-18T06:10:10;15.70;99.90
49224;DHT22;35050;51.316;5.994;2022-10-18T06:12:36;15.70;99.90
49224;DHT22;35050;51.316;5.994;2022-10-18T06:15:01;15.60;99.90
49224;DHT22;35050;51.316;5.994;2022-10-18T06:17:27;15.60;99.90
49224;DHT22;35050;51.316;5.994;2022-10-18T06:19:53;15.70;99.90
49224;DHT22;35050;51.316;5.994;2022-10-18T06:22:18;15.70;99.90
49224;DHT22;35050;51.316;5.994;2022-10-18T06:24:44;15.70;99.90
49224;DHT22;35050;51.316;5.994;2022-10-18T06:27:09;15.70;99.90
49224;DHT22;35050;51.316;5.994;2022-10-18T06:29:36;15.70;99.90
49224;DHT22;35050;51.316;5.994;2022-10-18T06:32:02;15.70;99.90
49224;DHT22;35050;51.316;5.994;2022-10-18T06:34:28;15.70;99.90
49224;DHT22;35050;51.316;5.994;2022-10-18T06:36:54;15.70;99.90
49224;DHT22;35050;51.316;5.994;2022-10-18T06:39:19;15.80;99.90
49224;DHT22;35050;51.316;5.994;2022-10-18T06:41:45;15.80;99.90
49224;DHT22;35050;51.316;5.994;2022-10-18T06:44:11;15.80;99.90
49224;DHT22;35050;51.316;5.994;2022-10-18T06:46:43;15.80;99.90
49224;DHT22;35050;51.316;5.994;2022-10-18T06:49:10;15.80;99.90
49224;DHT22;35050;51.316;5.994;2022-10-18T06:51:36;15.80;99.90
49224;DHT22;35050;51.316;5.994;2022-10-18T06:54:02;15.80;99.90
49224;DHT22;35050;51.316;5.994;2022-10-18T06:56:28;15.80;99.90
49224;DHT22;35050;51.316;5.994;2022-10-18T06:58:54;15.80;99.90
49224;DHT22;35050;51.316;5.994;2022-10-18T07:01:20;15.90;99.90
49224;DHT22;35050;51.316;5.994;2022-10-18T07:03:47;15.90;99.90
49224;DHT22;35050;51.316;5.994;2022-10-18T07:06:15;15.90;99.90
49224;DHT22;35050;51.316;5.994;2022-10-18T07:08:42;15.90;99.90
49224;DHT22;35050;51.316;5.994;2022-10-18T07:11:14;15.90;99.90
49224;DHT22;35050;51.316;5.994;2022-10-18T07:13:40;15.90;99.90
49224;DHT22;35050;51.316;5.994;2022-10-18T07:16:11;15.90;99.90
49224;DHT22;35050;51.316;5.994;2022-10-18T07:18:42;15.90;99.90
49224;DHT22;35050;51.316;5.994;2022-10-18T07:21:10;15.90;99.90
49224;DHT22;35050;51.316;5.994;2022-10-18T07:23:38;15.90;99.90
49224;DHT22;35050;51.316;5.994;2022-10-18T07:28:37;15.90;99.90
49224;DHT22;35050;51.316;5.994;2022-10-18T07:31:07;15.90;99.90
49224;DHT22;35050;51.316;5.994;2022-10-18T07:33:34;15.90;99.90
49224;DHT22;35050;51.316;5.994;2022-10-18T07:36:06;15.90;99.90
49224;DHT22;35050;51.316;5.994;2022-10-18T07:38:33;15.80;99.90
49224;DHT22;35050;51.316;5.994;2022-10-18T07:41:00;15.90;99.90
49224;DHT22;35050;51.316;5.994;2022-10-18T07:43:26;15.90;99.90
49224;DHT22;35050;51.316;5.994;2022-10-18T07:45:57;15.90;99.90
49224;DHT22;35050;51.316;5.994;2022-10-18T07:48:23;15.90;99.90
49224;DHT22;35050;51.316;5.994;2022-10-18T07:50:49;15.90;99.90
49224;DHT22;35050;51.316;5.994;2022-10-18T07:53:15;15.90;99.90
49224;DHT22;35050;51.316;5.994;2022-10-18T07:55:41;15.90;99.90
49224;DHT22;35050;51.316;5.994;2022-10-18T07:58:06;16.00;99.90
49224;DHT22;35050;51.316;5.994;2022-10-18T08:00:32;15.90;99.90
49224;DHT22;35050;51.316;5.994;2022-10-18T08:02:58;15.90;99.90
49224;DHT22;35050;51.316;5.994;2022-10-18T08:05:25;15.90;99.90
49224;DHT22;35050;51.316;5.994;2022-10-18T08:07:52;15.90;99.90
49224;DHT22;35050;51.316;5.994;2022-10-18T08:10:19;15.90;99.90
49224;DHT22;35050;51.316;5.994;2022-10-18T08:12:45;15.80;99.90
49224;DHT22;35050;51.316;5.994;2022-10-18T08:15:10;15.90;99.90
49224;DHT22;35050;51.316;5.994;2022-10-18T08:17:36;15.80;99.90
49224;DHT22;35050;51.316;5.994;2022-10-18T08:20:02;15.90;99.90
49224;DHT22;35050;51.316;5.994;2022-10-18T08:22:28;15.90;99.90
49224;DHT22;35050;51.316;5.994;2022-10-18T08:24:53;16.00;99.90
49224;DHT22;35050;51.316;5.994;2022-10-18T08:27:19;16.00;99.90
49224;DHT22;35050;51.316;5.994;2022-10-18T08:29:45;15.90;99.90
49224;DHT22;35050;51.316;5.994;2022-10-18T08:32:11;15.90;99.90
49224;DHT22;35050;51.316;5.994;2022-10-18T08:34:37;16.00;99.90
49224;DHT22;35050;51.316;5.994;2022-10-18T08:37:02;15.90;99.90
49224;DHT22;35050;51.316;5.994;2022-10-18T08:39:28;15.80;99.90
49224;DHT22;35050;51.316;5.994;2022-10-18T08:44:46;15.80;99.90
49224;DHT22;35050;51.316;5.994;2022-10-18T08:47:48;15.70;99.90
49224;DHT22;35050;51.316;5.994;2022-10-18T08:50:19;15.60;99.90
49224;DHT22;35050;51.316;5.994;2022-10-18T08:55:49;15.50;99.90
49224;DHT22;35050;51.316;5.994;2022-10-18T08:58:24;15.70;99.90
49224;DHT22;35050;51.316;5.994;2022-10-18T09:01:17;15.70;99.90
49224;DHT22;35050;51.316;5.994;2022-10-18T09:04:24;15.80;99.90
49224;DHT22;35050;51.316;5.994;2022-10-18T09:18:17;16.00;99.90
49224;DHT22;35050;51.316;5.994;2022-10-18T09:21:01;16.00;99.90
49224;DHT22;35050;51.316;5.994;2022-10-18T09:26:15;16.00;99.90
49224;DHT22;35050;51.316;5.994;2022-10-18T09:29:09;16.10;99.90
49224;DHT22;35050;51.316;5.994;2022-10-18T09:31:47;16.10;99.90
49224;DHT22;35050;51.316;5.994;2022-10-18T09:34:23;16.20;99.90
49224;DHT22;35050;51.316;5.994;2022-10-18T09:36:50;16.20;99.90
49224;DHT22;35050;51.316;5.994;2022-10-18T09:39:24;16.20;99.90
49224;DHT22;35050;51.316;5.994;2022-10-18T09:41:56;16.20;99.90
49224;DHT22;35050;51.316;5.994;2022-10-18T09:44:28;16.20;99.90
49224;DHT22;35050;51.316;5.994;2022-10-18T09:49:42;16.30;99.90
49224;DHT22;35050;51.316;5.994;2022-10-18T09:52:18;16.30;99.90
49224;DHT22;35050;51.316;5.994;2022-10-18T09:55:11;16.40;99.90
49224;DHT22;35050;51.316;5.994;2022-10-18T09:57:45;16.10;99.90
49224;DHT22;35050;51.316;5.994;2022-10-18T10:00:17;16.20;99.90
49224;DHT22;35050;51.316;5.994;2022-10-18T10:02:45;16.20;99.90
49224;DHT22;35050;51.316;5.994;2022-10-18T10:05:14;16.30;99.90
49224;DHT22;35050;51.316;5.994;2022-10-18T10:07:46;16.40;99.90
49224;DHT22;35050;51.316;5.994;2022-10-18T10:10:23;16.30;99.90
49224;DHT22;35050;51.316;5.994;2022-10-18T10:13:06;16.40;99.90
49224;DHT22;35050;51.316;5.994;2022-10-18T10:15:38;16.40;99.90
49224;DHT22;35050;51.316;5.994;2022-10-18T10:18:20;16.60;99.90
49224;DHT22;35050;51.316;5.994;2022-10-18T10:20:58;16.60;99.90
49224;DHT22;35050;51.316;5.994;2022-10-18T10:23:43;16.60;99.90
49224;DHT22;35050;51.316;5.994;2022-10-18T10:28:47;16.50;99.90
49224;DHT22;35050;51.316;5.994;2022-10-18T10:34:03;16.60;99.90
49224;DHT22;35050;51.316;5.994;2022-10-18T10:36:30;16.70;99.90
49224;DHT22;35050;51.316;5.994;2022-10-18T10:41:34;16.80;99.90
49224;DHT22;35050;51.316;5.994;2022-10-18T10:44:03;16.80;99.90
49224;DHT22;35050;51.316;5.994;2022-10-18T10:46:34;17.10;99.90
49224;DHT22;35050;51.316;5.994;2022-10-18T10:49:00;17.30;99.90
49224;DHT22;35050;51.316;5.994;2022-10-18T10:51:35;17.40;99.90
49224;DHT22;35050;51.316;5.994;2022-10-18T10:54:06;17.40;99.90
49224;DHT22;35050;51.316;5.994;2022-10-18T10:56:58;17.30;99.90
49224;DHT22;35050;51.316;5.994;2022-10-18T10:59:30;17.30;99.90
49224;DHT22;35050;51.316;5.994;2022-10-18T11:04:44;17.30;99.90
49224;DHT22;35050;51.316;5.994;2022-10-18T11:07:18;17.20;99.90
49224;DHT22;35050;51.316;5.994;2022-10-18T11:12:38;17.10;99.90
49224;DHT22;35050;51.316;5.994;2022-10-18T11:17:50;17.30;99.90
49224;DHT22;35050;51.316;5.994;2022-10-18T11:25:24;17.40;99.90
49224;DHT22;35050;51.316;5.994;2022-10-18T11:27:53;17.80;99.90
49224;DHT22;35050;51.316;5.994;2022-10-18T11:35:59;18.60;99.90
49224;DHT22;35050;51.316;5.994;2022-10-18T11:38:39;18.20;99.90
49224;DHT22;35050;51.316;5.994;2022-10-18T11:41:18;18.70;99.90
49224;DHT22;35050;51.316;5.994;2022-10-18T11:43:59;19.30;99.90
49224;DHT22;35050;51.316;5.994;2022-10-18T11:46:31;19.80;99.90
49224;DHT22;35050;51.316;5.994;2022-10-18T12:00:45;20.40;99.90
49224;DHT22;35050;51.316;5.994;2022-10-18T12:03:17;20.20;99.90
49224;DHT22;35050;51.316;5.994;2022-10-18T12:05:46;20.20;99.90
49224;DHT22;35050;51.316;5.994;2022-10-18T12:09:13;20.10;99.90
49224;DHT22;35050;51.316;5.994;2022-10-18T12:11:29;20.30;99.90
49224;DHT22;35050;51.316;5.994;2022-10-18T12:13:59;19.90;99.90
49224;DHT22;35050;51.316;5.994;2022-10-18T12:16:29;19.60;99.90
49224;DHT22;35050;51.316;5.994;2022-10-18T12:19:03;19.90;99.90
49224;DHT22;35050;51.316;5.994;2022-10-18T12:21:31;20.20;99.90
49224;DHT22;35050;51.316;5.994;2022-10-18T12:24:01;20.40;99.90
49224;DHT22;35050;51.316;5.994;2022-10-18T12:26:27;20.60;99.90
49224;DHT22;35050;51.316;5.994;2022-10-18T12:37:37;20.90;99.90
49224;DHT22;35050;51.316;5.994;2022-10-18T12:42:43;20.60;99.90
49224;DHT22;35050;51.316;5.994;2022-10-18T12:47:39;21.80;99.90
49224;DHT22;35050;51.316;5.994;2022-10-18T12:50:22;21.70;99.90
49224;DHT22;35050;51.316;5.994;2022-10-18T12:55:39;22.50;99.90
49224;DHT22;35050;51.316;5.994;2022-10-18T13:00:50;22.20;99.90
49224;DHT22;35050;51.316;5.994;2022-10-18T13:11:27;21.70;99.90
49224;DHT22;35050;51.316;5.994;2022-10-18T13:14:20;21.50;99.90
49224;DHT22;35050;51.316;5.994;2022-10-18T13:17:05;21.20;99.90
49224;DHT22;35050;51.316;5.994;2022-10-18T13:24:56;21.00;99.90
49224;DHT22;35050;51.316;5.994;2022-10-18T13:35:39;21.50;99.90
49224;DHT22;35050;51.316;5.994;2022-10-18T13:37:56;22.00;99.90
49224;DHT22;35050;51.316;5.994;2022-10-18T13:40:23;22.50;99.90
49224;DHT22;35050;51.316;5.994;2022-10-18T13:42:49;23.10;99.90
49224;DHT22;35050;51.316;5.994;2022-10-18T13:47:55;22.80;99.90
49224;DHT22;35050;51.316;5.994;2022-10-18T13:50:25;22.60;99.90
49224;DHT22;35050;51.316;5.994;2022-10-18T13:55:36;22.30;99.90
49224;DHT22;35050;51.316;5.994;2022-10-18T14:06:05;21.50;99.90
49224;DHT22;35050;51.316;5.994;2022-10-18T14:13:40;20.80;99.90
49224;DHT22;35050;51.316;5.994;2022-10-18T14:16:19;20.90;99.90
49224;DHT22;35050;51.316;5.994;2022-10-18T14:18:48;20.70;99.90
49224;DHT22;35050;51.316;5.994;2022-10-18T14:21:18;20.90;99.90
49224;DHT22;35050;51.316;5.994;2022-10-18T14:23:45;20.40;99.90
49224;DHT22;35050;51.316;5.994;2022-10-18T14:26:15;20.30;99.90
49224;DHT22;35050;51.316;5.994;2022-10-18T14:28:40;20.10;99.90
49224;DHT22;35050;51.316;5.994;2022-10-18T14:31:13;19.90;99.90
49224;DHT22;35050;51.316;5.994;2022-10-18T14:33:40;20.30;99.90
49224;DHT22;35050;51.316;5.994;2022-10-18T14:38:33;20.60;99.90
49224;DHT22;35050;51.316;5.994;2022-10-18T14:41:06;20.50;99.90
49224;DHT22;35050;51.316;5.994;2022-10-18T14:43:36;20.30;99.90
49224;DHT22;35050;51.316;5.994;2022-10-18T14:46:15;20.00;99.90
49224;DHT22;35050;51.316;5.994;2022-10-18T14:48:41;19.70;99.90
49224;DHT22;35050;51.316;5.994;2022-10-18T14:51:15;19.70;99.90
49224;DHT22;35050;51.316;5.994;2022-10-18T14:53:41;19.60;99.90
49224;DHT22;35050;51.316;5.994;2022-10-18T14:56:09;19.40;99.90
49224;DHT22;35050;51.316;5.994;2022-10-18T14:58:43;19.70;99.90
49224;DHT22;35050;51.316;5.994;2022-10-18T15:01:14;19.70;99.90
49224;DHT22;35050;51.316;5.994;2022-10-18T15:03:40;19.50;99.90
49224;DHT22;35050;51.316;5.994;2022-10-18T15:06:05;19.20;99.90
49224;DHT22;35050;51.316;5.994;2022-10-18T15:08:37;19.20;99.90
49224;DHT22;35050;51.316;5.994;2022-10-18T15:11:03;19.10;99.90
49224;DHT22;35050;51.316;5.994;2022-10-18T15:13:30;19.10;99.90
49224;DHT22;35050;51.316;5.994;2022-10-18T15:15:56;19.00;99.90
49224;DHT22;35050;51.316;5.994;2022-10-18T15:18:22;19.10;99.90
49224;DHT22;35050;51.316;5.994;2022-10-18T15:21:07;19.20;99.90
49224;DHT22;35050;51.316;5.994;2022-10-18T15:23:33;19.10;99.90
49224;DHT22;35050;51.316;5.994;2022-10-18T15:26:06;19.10;99.90
49224;DHT22;35050;51.316;5.994;2022-10-18T15:28:33;19.10;99.90
49224;DHT22;35050;51.316;5.994;2022-10-18T15:31:00;19.00;99.90
49224;DHT22;35050;51.316;5.994;2022-10-18T15:33:26;18.80;99.90
49224;DHT22;35050;51.316;5.994;2022-10-18T15:36:06;18.80;99.90
49224;DHT22;35050;51.316;5.994;2022-10-18T15:38:31;18.90;99.90
49224;DHT22;35050;51.316;5.994;2022-10-18T15:40:57;18.80;99.90
49224;DHT22;35050;51.316;5.994;2022-10-18T15:45:49;18.70;99.90
49224;DHT22;35050;51.316;5.994;2022-10-18T15:48:26;18.70;99.90
49224;DHT22;35050;51.316;5.994;2022-10-18T15:50:56;18.50;99.90
49224;DHT22;35050;51.316;5.994;2022-10-18T15:56:30;18.40;99.90
49224;DHT22;35050;51.316;5.994;2022-10-18T15:58:46;18.40;99.90
49224;DHT22;35050;51.316;5.994;2022-10-18T16:03:56;18.50;99.90
49224;DHT22;35050;51.316;5.994;2022-10-18T16:06:22;18.50;99.90
49224;DHT22;35050;51.316;5.994;2022-10-18T16:08:48;18.40;99.90
49224;DHT22;35050;51.316;5.994;2022-10-18T16:11:22;18.30;99.90
49224;DHT22;35050;51.316;5.994;2022-10-18T16:13:48;18.30;99.90
49224;DHT22;35050;51.316;5.994;2022-10-18T16:16:15;18.30;99.90
49224;DHT22;35050;51.316;5.994;2022-10-18T16:18:41;18.20;99.90
49224;DHT22;35050;51.316;5.994;2022-10-18T16:21:12;18.10;99.90
49224;DHT22;35050;51.316;5.994;2022-10-18T16:23:37;18.10;99.90
49224;DHT22;35050;51.316;5.994;2022-10-18T16:26:03;18.00;99.90
49224;DHT22;35050;51.316;5.994;2022-10-18T16:28:28;17.80;99.90
49224;DHT22;35050;51.316;5.994;2022-10-18T16:30:57;17.80;99.90
49224;DHT22;35050;51.316;5.994;2022-10-18T16:33:23;17.70;99.90
49224;DHT22;35050;51.316;5.994;2022-10-18T16:35:48;17.60;99.90
49224;DHT22;35050;51.316;5.994;2022-10-18T16:38:23;17.60;99.90
49224;DHT22;35050;51.316;5.994;2022-10-18T16:40:49;17.60;99.90
49224;DHT22;35050;51.316;5.994;2022-10-18T16:43:14;17.60;99.90
49224;DHT22;35050;51.316;5.994;2022-10-18T16:45:40;17.50;99.90
49224;DHT22;35050;51.316;5.994;2022-10-18T16:48:05;17.40;99.90
49224;DHT22;35050;51.316;5.994;2022-10-18T16:50:31;17.10;99.90
49224;DHT22;35050;51.316;5.994;2022-10-18T16:52:57;17.10;99.90
49224;DHT22;35050;51.316;5.994;2022-10-18T16:55:22;17.10;99.90
49224;DHT22;35050;51.316;5.994;2022-10-18T16:57:49;17.10;99.90
49224;DHT22;35050;51.316;5.994;2022-10-18T17:00:19;17.00;99.90
49224;DHT22;35050;51.316;5.994;2022-10-18T17:02:45;16.70;99.90
49224;DHT22;35050;51.316;5.994;2022-10-18T17:05:11;16.70;99.90
49224;DHT22;35050;51.316;5.994;2022-10-18T17:07:36;16.60;99.90
49224;DHT22;35050;51.316;5.994;2022-10-18T17:10:02;16.50;99.90
49224;DHT22;35050;51.316;5.994;2022-10-18T17:12:28;16.50;99.90
49224;DHT22;35050;51.316;5.994;2022-10-18T17:14:53;16.50;99.90
49224;DHT22;35050;51.316;5.994;2022-10-18T17:17:19;16.50;99.90
49224;DHT22;35050;51.316;5.994;2022-10-18T17:19:44;16.40;99.90
49224;DHT22;35050;51.316;5.994;2022-10-18T17:22:10;16.30;99.90
49224;DHT22;35050;51.316;5.994;2022-10-18T17:24:35;16.40;99.90
49224;DHT22;35050;51.316;5.994;2022-10-18T17:27:01;16.30;99.90
49224;DHT22;35050;51.316;5.994;2022-10-18T17:29:26;16.20;99.90
49224;DHT22;35050;51.316;5.994;2022-10-18T17:31:52;16.20;99.90
49224;DHT22;35050;51.316;5.994;2022-10-18T17:34:17;16.10;99.90
49224;DHT22;35050;51.316;5.994;2022-10-18T17:36:43;16.00;99.90
49224;DHT22;35050;51.316;5.994;2022-10-18T17:39:09;16.00;99.90
49224;DHT22;35050;51.316;5.994;2022-10-18T17:41:35;15.90;99.90
49224;DHT22;35050;51.316;5.994;2022-10-18T17:44:01;15.90;99.90
49224;DHT22;35050;51.316;5.994;2022-10-18T17:46:26;15.80;99.90
49224;DHT22;35050;51.316;5.994;2022-10-18T17:48:52;15.70;99.90
49224;DHT22;35050;51.316;5.994;2022-10-18T17:51:17;15.60;99.90
49224;DHT22;35050;51.316;5.994;2022-10-18T17:53:43;15.50;99.90
49224;DHT22;35050;51.316;5.994;2022-10-18T17:56:09;15.50;99.90
49224;DHT22;35050;51.316;5.994;2022-10-18T17:58:34;15.60;99.90
49224;DHT22;35050;51.316;5.994;2022-10-18T18:01:22;15.50;99.90
49224;DHT22;35050;51.316;5.994;2022-10-18T18:03:46;15.50;99.90
49224;DHT22;35050;51.316;5.994;2022-10-18T18:08:37;15.30;99.90
49224;DHT22;35050;51.316;5.994;2022-10-18T18:11:03;15.20;99.90
49224;DHT22;35050;51.316;5.994;2022-10-18T18:13:28;15.30;99.90
49224;DHT22;35050;51.316;5.994;2022-10-18T18:15:54;15.30;99.90
49224;DHT22;35050;51.316;5.994;2022-10-18T18:18:19;15.20;99.90
49224;DHT22;35050;51.316;5.994;2022-10-18T18:20:48;15.10;99.90
49224;DHT22;35050;51.316;5.994;2022-10-18T18:23:14;15.00;99.90
49224;DHT22;35050;51.316;5.994;2022-10-18T18:25:39;15.00;99.90
49224;DHT22;35050;51.316;5.994;2022-10-18T18:28:05;14.90;99.90